Etusivu
METAR-TAF:

METAR-TAF

Lentoasemat :

Greenville, Mississippi, Yhdysvallat

Leveyspiiri: 33-28-58N, Pituuspiiri: 090-59-08W, korkeus merenpinnasta: 40 m

Tämänhetkinen sää

Tämä raportti tehtiin 48 minuuttia sitten, kello 07.53 UTC
tyyntä
Lämpötila -4°C
Kosteus 93%
Ilmanpaine 1029 hPa
selkeää

METAR: KGLH 110753Z AUTO 00000KT CLR M04/M05 A3039 RMK AO2 SLPNO T10391050 $

Aika: 02:41 (08:41 UTC)

Sääennuste

Tämä raportti tehtiin 3 tuntia ja 6 minuuttia sitten, kello 05.35 UTC
Ennuste voimassa 11. päivästä klo 06 UTC - 12. päivään klo 06 UTC
Tuuli 5 kn lounaasta
Näkyvyys: 10 km
selkeää

TAF: KGLH 110535Z 1106/1206 22005KT P6SM SKC

Säähavainnot ja -ennusteet yli 4000 lentoasemalta (METAR- ja TAF-raportit).

Käytössä olevat sääasemat on merkitty karttaan keltaisilla ja punaisilla pisteillä.

Aseta hiiri pisteen päälle nähdäksesi sääaseman nimen.

Klikkaa sitten nähdäksesi säähavainnot ja -ennusteet.

Kartan vaihtaminen: klikkaa mustalla rastilla varustettuja vihreitä pisteitä, niin voit zoomata sisään; viivalla varustettua vihreää pistettä, niin voit zoomata ulos tai vihreitä nuolia, niin pääset viereisille kartoille.


METAR-TAF: